sensor_id;sensor_type;location;lat;lon;timestamp;P1;durP1;ratioP1;P2;durP2;ratioP2
81679;SDS011;74989;52.210;5.148;2024-02-28T00:00:41;18.38;;;12.02;;
81679;SDS011;74989;52.210;5.148;2024-02-28T00:03:08;15.73;;;10.70;;
81679;SDS011;74989;52.210;5.148;2024-02-28T00:05:34;16.75;;;12.18;;
81679;SDS011;74989;52.210;5.148;2024-02-28T00:08:01;18.17;;;12.93;;
81679;SDS011;74989;52.210;5.148;2024-02-28T00:10:28;18.10;;;12.63;;
81679;SDS011;74989;52.210;5.148;2024-02-28T00:12:54;22.00;;;15.70;;
81679;SDS011;74989;52.210;5.148;2024-02-28T00:15:22;22.40;;;15.90;;
81679;SDS011;74989;52.210;5.148;2024-02-28T00:17:51;24.70;;;16.33;;
81679;SDS011;74989;52.210;5.148;2024-02-28T00:20:18;19.70;;;15.27;;
81679;SDS011;74989;52.210;5.148;2024-02-28T00:22:45;22.98;;;14.13;;
81679;SDS011;74989;52.210;5.148;2024-02-28T00:25:12;20.63;;;14.43;;
81679;SDS011;74989;52.210;5.148;2024-02-28T00:27:39;16.23;;;12.10;;
81679;SDS011;74989;52.210;5.148;2024-02-28T00:30:06;26.88;;;15.43;;
81679;SDS011;74989;52.210;5.148;2024-02-28T00:32:34;18.83;;;13.13;;
81679;SDS011;74989;52.210;5.148;2024-02-28T00:35:01;16.73;;;11.95;;
81679;SDS011;74989;52.210;5.148;2024-02-28T00:37:29;17.02;;;13.18;;
81679;SDS011;74989;52.210;5.148;2024-02-28T00:39:55;24.67;;;13.10;;
81679;SDS011;74989;52.210;5.148;2024-02-28T00:42:22;26.60;;;14.38;;
81679;SDS011;74989;52.210;5.148;2024-02-28T00:44:49;22.60;;;14.90;;
81679;SDS011;74989;52.210;5.148;2024-02-28T00:47:17;19.70;;;12.27;;
81679;SDS011;74989;52.210;5.148;2024-02-28T00:49:45;20.08;;;13.35;;
81679;SDS011;74989;52.210;5.148;2024-02-28T00:52:12;18.38;;;13.07;;
81679;SDS011;74989;52.210;5.148;2024-02-28T00:54:38;18.50;;;12.98;;
81679;SDS011;74989;52.210;5.148;2024-02-28T00:57:05;22.23;;;13.00;;
81679;SDS011;74989;52.210;5.148;2024-02-28T00:59:32;22.88;;;13.60;;
81679;SDS011;74989;52.210;5.148;2024-02-28T01:01:58;18.15;;;13.23;;
81679;SDS011;74989;52.210;5.148;2024-02-28T01:04:25;18.85;;;12.68;;
81679;SDS011;74989;52.210;5.148;2024-02-28T01:06:54;17.92;;;13.02;;
81679;SDS011;74989;52.210;5.148;2024-02-28T01:09:21;16.10;;;12.23;;
81679;SDS011;74989;52.210;5.148;2024-02-28T01:11:48;19.67;;;13.23;;
81679;SDS011;74989;52.210;5.148;2024-02-28T01:14:14;20.45;;;14.65;;
81679;SDS011;74989;52.210;5.148;2024-02-28T01:16:41;22.23;;;14.00;;
81679;SDS011;74989;52.210;5.148;2024-02-28T01:19:08;26.52;;;15.70;;
81679;SDS011;74989;52.210;5.148;2024-02-28T01:21:34;21.53;;;13.03;;
81679;SDS011;74989;52.210;5.148;2024-02-28T01:24:03;24.52;;;14.77;;
81679;SDS011;74989;52.210;5.148;2024-02-28T01:26:29;20.35;;;14.18;;
81679;SDS011;74989;52.210;5.148;2024-02-28T01:28:56;27.23;;;16.20;;
81679;SDS011;74989;52.210;5.148;2024-02-28T01:31:23;23.98;;;16.25;;
81679;SDS011;74989;52.210;5.148;2024-02-28T01:33:49;25.43;;;15.67;;
81679;SDS011;74989;52.210;5.148;2024-02-28T01:36:16;19.65;;;13.80;;
81679;SDS011;74989;52.210;5.148;2024-02-28T01:38:43;33.70;;;15.43;;
81679;SDS011;74989;52.210;5.148;2024-02-28T01:41:11;24.13;;;15.57;;
81679;SDS011;74989;52.210;5.148;2024-02-28T01:43:37;22.15;;;15.30;;
81679;SDS011;74989;52.210;5.148;2024-02-28T01:46:05;23.63;;;14.90;;
81679;SDS011;74989;52.210;5.148;2024-02-28T01:48:54;21.50;;;14.32;;
81679;SDS011;74989;52.210;5.148;2024-02-28T01:51:22;26.73;;;16.98;;
81679;SDS011;74989;52.210;5.148;2024-02-28T01:53:50;28.33;;;15.80;;
81679;SDS011;74989;52.210;5.148;2024-02-28T01:56:20;20.98;;;15.52;;
81679;SDS011;74989;52.210;5.148;2024-02-28T01:58:49;21.90;;;15.10;;
81679;SDS011;74989;52.210;5.148;2024-02-28T02:01:16;25.30;;;15.77;;
81679;SDS011;74989;52.210;5.148;2024-02-28T02:03:49;21.58;;;14.52;;
81679;SDS011;74989;52.210;5.148;2024-02-28T02:06:16;21.90;;;15.27;;
81679;SDS011;74989;52.210;5.148;2024-02-28T02:08:42;21.98;;;14.90;;
81679;SDS011;74989;52.210;5.148;2024-02-28T02:11:09;24.50;;;13.53;;
81679;SDS011;74989;52.210;5.148;2024-02-28T02:13:48;21.20;;;14.38;;
81679;SDS011;74989;52.210;5.148;2024-02-28T02:16:15;23.08;;;16.05;;
81679;SDS011;74989;52.210;5.148;2024-02-28T02:18:42;19.98;;;14.45;;
81679;SDS011;74989;52.210;5.148;2024-02-28T02:21:09;24.95;;;15.13;;
81679;SDS011;74989;52.210;5.148;2024-02-28T02:23:40;26.83;;;15.53;;
81679;SDS011;74989;52.210;5.148;2024-02-28T02:26:07;25.48;;;15.90;;
81679;SDS011;74989;52.210;5.148;2024-02-28T02:28:33;24.50;;;16.88;;
81679;SDS011;74989;52.210;5.148;2024-02-28T02:31:00;21.70;;;15.43;;
81679;SDS011;74989;52.210;5.148;2024-02-28T02:33:27;24.17;;;17.60;;
81679;SDS011;74989;52.210;5.148;2024-02-28T02:35:54;28.67;;;16.97;;
81679;SDS011;74989;52.210;5.148;2024-02-28T02:38:20;20.13;;;13.40;;
81679;SDS011;74989;52.210;5.148;2024-02-28T02:40:49;27.95;;;15.45;;
81679;SDS011;74989;52.210;5.148;2024-02-28T02:43:16;22.55;;;15.90;;
81679;SDS011;74989;52.210;5.148;2024-02-28T02:45:43;26.80;;;16.08;;
81679;SDS011;74989;52.210;5.148;2024-02-28T02:48:10;22.83;;;14.87;;
81679;SDS011;74989;52.210;5.148;2024-02-28T02:50:36;22.58;;;13.75;;
81679;SDS011;74989;52.210;5.148;2024-02-28T02:53:03;25.30;;;14.60;;
81679;SDS011;74989;52.210;5.148;2024-02-28T02:55:30;23.08;;;12.55;;
81679;SDS011;74989;52.210;5.148;2024-02-28T02:57:58;20.50;;;13.65;;
81679;SDS011;74989;52.210;5.148;2024-02-28T03:00:25;24.03;;;13.03;;
81679;SDS011;74989;52.210;5.148;2024-02-28T03:02:52;21.88;;;13.73;;
81679;SDS011;74989;52.210;5.148;2024-02-28T03:05:19;21.63;;;15.30;;
81679;SDS011;74989;52.210;5.148;2024-02-28T03:07:46;19.77;;;12.68;;
81679;SDS011;74989;52.210;5.148;2024-02-28T03:10:13;18.80;;;13.23;;
81679;SDS011;74989;52.210;5.148;2024-02-28T03:12:40;18.43;;;12.43;;
81679;SDS011;74989;52.210;5.148;2024-02-28T03:15:09;20.25;;;12.32;;
81679;SDS011;74989;52.210;5.148;2024-02-28T03:17:35;18.95;;;12.45;;
81679;SDS011;74989;52.210;5.148;2024-02-28T03:20:01;20.20;;;11.43;;
81679;SDS011;74989;52.210;5.148;2024-02-28T03:22:28;17.45;;;11.45;;
81679;SDS011;74989;52.210;5.148;2024-02-28T03:24:55;17.55;;;11.90;;
81679;SDS011;74989;52.210;5.148;2024-02-28T03:27:21;16.25;;;10.68;;
81679;SDS011;74989;52.210;5.148;2024-02-28T03:29:48;17.52;;;11.30;;
81679;SDS011;74989;52.210;5.148;2024-02-28T03:32:16;17.90;;;10.83;;
81679;SDS011;74989;52.210;5.148;2024-02-28T03:34:43;16.67;;;10.75;;
81679;SDS011;74989;52.210;5.148;2024-02-28T03:37:09;19.77;;;12.75;;
81679;SDS011;74989;52.210;5.148;2024-02-28T03:39:36;14.52;;;10.40;;
81679;SDS011;74989;52.210;5.148;2024-02-28T03:42:03;17.45;;;10.75;;
81679;SDS011;74989;52.210;5.148;2024-02-28T03:44:29;15.20;;;10.43;;
81679;SDS011;74989;52.210;5.148;2024-02-28T03:46:56;14.70;;;11.23;;
81679;SDS011;74989;52.210;5.148;2024-02-28T03:49:24;17.13;;;11.23;;
81679;SDS011;74989;52.210;5.148;2024-02-28T03:51:50;17.60;;;11.80;;
81679;SDS011;74989;52.210;5.148;2024-02-28T03:54:17;14.95;;;10.35;;
81679;SDS011;74989;52.210;5.148;2024-02-28T03:56:44;14.80;;;9.67;;
81679;SDS011;74989;52.210;5.148;2024-02-28T03:59:10;20.00;;;10.65;;
81679;SDS011;74989;52.210;5.148;2024-02-28T04:01:37;19.60;;;12.48;;
81679;SDS011;74989;52.210;5.148;2024-02-28T04:04:04;15.48;;;9.70;;
81679;SDS011;74989;52.210;5.148;2024-02-28T04:06:32;15.40;;;10.98;;
81679;SDS011;74989;52.210;5.148;2024-02-28T04:08:58;15.63;;;9.70;;
81679;SDS011;74989;52.210;5.148;2024-02-28T04:11:25;13.52;;;9.30;;
81679;SDS011;74989;52.210;5.148;2024-02-28T04:13:52;17.85;;;11.60;;
81679;SDS011;74989;52.210;5.148;2024-02-28T04:16:18;15.38;;;10.38;;
81679;SDS011;74989;52.210;5.148;2024-02-28T04:18:45;18.95;;;10.27;;
81679;SDS011;74989;52.210;5.148;2024-02-28T04:21:12;20.10;;;11.70;;
81679;SDS011;74989;52.210;5.148;2024-02-28T04:23:40;18.10;;;11.07;;
81679;SDS011;74989;52.210;5.148;2024-02-28T04:26:09;15.13;;;11.43;;
81679;SDS011;74989;52.210;5.148;2024-02-28T04:28:35;20.98;;;11.25;;
81679;SDS011;74989;52.210;5.148;2024-02-28T04:31:02;20.63;;;11.45;;
81679;SDS011;74989;52.210;5.148;2024-02-28T04:33:29;19.83;;;12.23;;
81679;SDS011;74989;52.210;5.148;2024-02-28T04:35:56;16.63;;;10.38;;
81679;SDS011;74989;52.210;5.148;2024-02-28T04:38:22;16.90;;;11.50;;
81679;SDS011;74989;52.210;5.148;2024-02-28T04:40:50;14.02;;;10.98;;
81679;SDS011;74989;52.210;5.148;2024-02-28T04:43:17;17.60;;;10.95;;
81679;SDS011;74989;52.210;5.148;2024-02-28T04:45:43;15.60;;;11.33;;
81679;SDS011;74989;52.210;5.148;2024-02-28T04:48:10;17.17;;;11.32;;
81679;SDS011;74989;52.210;5.148;2024-02-28T04:50:37;16.52;;;11.43;;
81679;SDS011;74989;52.210;5.148;2024-02-28T04:53:04;17.45;;;12.10;;
81679;SDS011;74989;52.210;5.148;2024-02-28T04:55:31;15.98;;;11.50;;
81679;SDS011;74989;52.210;5.148;2024-02-28T04:57:59;17.30;;;10.83;;
81679;SDS011;74989;52.210;5.148;2024-02-28T05:00:25;15.02;;;11.23;;
81679;SDS011;74989;52.210;5.148;2024-02-28T05:02:52;19.92;;;12.73;;
81679;SDS011;74989;52.210;5.148;2024-02-28T05:05:19;17.55;;;11.30;;
81679;SDS011;74989;52.210;5.148;2024-02-28T05:07:45;16.05;;;10.27;;
81679;SDS011;74989;52.210;5.148;2024-02-28T05:10:12;21.50;;;12.77;;
81679;SDS011;74989;52.210;5.148;2024-02-28T05:12:39;16.90;;;12.00;;
81679;SDS011;74989;52.210;5.148;2024-02-28T05:15:07;25.42;;;12.57;;
81679;SDS011;74989;52.210;5.148;2024-02-28T05:17:34;17.45;;;11.93;;
81679;SDS011;74989;52.210;5.148;2024-02-28T05:20:01;18.83;;;12.70;;
81679;SDS011;74989;52.210;5.148;2024-02-28T05:22:28;19.57;;;11.57;;
81679;SDS011;74989;52.210;5.148;2024-02-28T05:24:54;18.98;;;12.70;;
81679;SDS011;74989;52.210;5.148;2024-02-28T05:27:21;19.27;;;12.68;;
81679;SDS011;74989;52.210;5.148;2024-02-28T05:29:48;18.45;;;13.32;;
81679;SDS011;74989;52.210;5.148;2024-02-28T05:32:16;23.30;;;13.48;;
81679;SDS011;74989;52.210;5.148;2024-02-28T05:34:44;12.77;;;9.90;;
81679;SDS011;74989;52.210;5.148;2024-02-28T05:37:12;24.35;;;12.93;;
81679;SDS011;74989;52.210;5.148;2024-02-28T05:39:38;16.80;;;13.10;;
81679;SDS011;74989;52.210;5.148;2024-02-28T05:42:05;18.65;;;12.52;;
81679;SDS011;74989;52.210;5.148;2024-02-28T05:44:32;19.58;;;14.18;;
81679;SDS011;74989;52.210;5.148;2024-02-28T05:46:59;19.57;;;13.70;;
81679;SDS011;74989;52.210;5.148;2024-02-28T05:49:28;20.40;;;12.98;;
81679;SDS011;74989;52.210;5.148;2024-02-28T05:51:54;18.73;;;13.70;;
81679;SDS011;74989;52.210;5.148;2024-02-28T05:54:21;25.98;;;14.18;;
81679;SDS011;74989;52.210;5.148;2024-02-28T05:56:48;16.50;;;13.45;;
81679;SDS011;74989;52.210;5.148;2024-02-28T05:59:14;23.00;;;13.60;;
81679;SDS011;74989;52.210;5.148;2024-02-28T06:01:41;18.30;;;12.77;;
81679;SDS011;74989;52.210;5.148;2024-02-28T06:04:07;20.02;;;14.63;;
81679;SDS011;74989;52.210;5.148;2024-02-28T06:06:35;29.75;;;15.68;;
81679;SDS011;74989;52.210;5.148;2024-02-28T06:09:02;21.60;;;15.20;;
81679;SDS011;74989;52.210;5.148;2024-02-28T06:11:29;19.67;;;13.73;;
81679;SDS011;74989;52.210;5.148;2024-02-28T06:13:56;24.95;;;13.82;;
81679;SDS011;74989;52.210;5.148;2024-02-28T06:16:22;21.88;;;13.82;;
81679;SDS011;74989;52.210;5.148;2024-02-28T06:18:49;23.67;;;14.25;;
81679;SDS011;74989;52.210;5.148;2024-02-28T06:21:15;27.20;;;15.10;;
81679;SDS011;74989;52.210;5.148;2024-02-28T06:23:43;24.53;;;15.20;;
81679;SDS011;74989;52.210;5.148;2024-02-28T06:26:10;24.48;;;14.77;;
81679;SDS011;74989;52.210;5.148;2024-02-28T06:28:41;19.48;;;13.57;;
81679;SDS011;74989;52.210;5.148;2024-02-28T06:31:11;25.02;;;14.25;;
81679;SDS011;74989;52.210;5.148;2024-02-28T06:33:39;27.50;;;14.43;;
81679;SDS011;74989;52.210;5.148;2024-02-28T06:36:06;21.20;;;13.80;;
81679;SDS011;74989;52.210;5.148;2024-02-28T06:38:33;24.38;;;14.75;;
81679;SDS011;74989;52.210;5.148;2024-02-28T06:41:02;24.10;;;14.13;;
81679;SDS011;74989;52.210;5.148;2024-02-28T06:43:29;20.48;;;13.65;;
81679;SDS011;74989;52.210;5.148;2024-02-28T06:45:56;19.80;;;14.35;;
81679;SDS011;74989;52.210;5.148;2024-02-28T06:48:23;21.70;;;15.53;;
81679;SDS011;74989;52.210;5.148;2024-02-28T06:50:50;25.63;;;15.55;;
81679;SDS011;74989;52.210;5.148;2024-02-28T06:53:16;29.20;;;19.23;;
81679;SDS011;74989;52.210;5.148;2024-02-28T06:55:43;24.10;;;16.35;;
81679;SDS011;74989;52.210;5.148;2024-02-28T06:58:12;26.48;;;17.80;;
81679;SDS011;74989;52.210;5.148;2024-02-28T07:00:38;27.60;;;17.57;;
81679;SDS011;74989;52.210;5.148;2024-02-28T07:03:05;30.95;;;16.75;;
81679;SDS011;74989;52.210;5.148;2024-02-28T07:05:32;22.58;;;17.00;;
81679;SDS011;74989;52.210;5.148;2024-02-28T07:07:59;26.02;;;17.05;;
81679;SDS011;74989;52.210;5.148;2024-02-28T07:10:26;32.70;;;17.60;;
81679;SDS011;74989;52.210;5.148;2024-02-28T07:12:53;34.73;;;18.23;;
81679;SDS011;74989;52.210;5.148;2024-02-28T07:15:21;28.00;;;19.90;;
81679;SDS011;74989;52.210;5.148;2024-02-28T07:17:47;31.58;;;19.77;;
81679;SDS011;74989;52.210;5.148;2024-02-28T07:20:14;27.30;;;17.35;;
81679;SDS011;74989;52.210;5.148;2024-02-28T07:22:42;27.48;;;17.42;;
81679;SDS011;74989;52.210;5.148;2024-02-28T07:25:09;28.20;;;18.77;;
81679;SDS011;74989;52.210;5.148;2024-02-28T07:27:36;24.08;;;16.95;;
81679;SDS011;74989;52.210;5.148;2024-02-28T07:30:03;26.27;;;17.70;;
81679;SDS011;74989;52.210;5.148;2024-02-28T07:32:33;29.02;;;16.10;;
81679;SDS011;74989;52.210;5.148;2024-02-28T07:35:00;27.98;;;17.27;;
81679;SDS011;74989;52.210;5.148;2024-02-28T07:37:26;25.90;;;16.93;;
81679;SDS011;74989;52.210;5.148;2024-02-28T07:39:53;29.05;;;16.55;;
81679;SDS011;74989;52.210;5.148;2024-02-28T07:42:20;24.65;;;18.00;;
81679;SDS011;74989;52.210;5.148;2024-02-28T07:44:46;23.77;;;16.23;;
81679;SDS011;74989;52.210;5.148;2024-02-28T07:47:14;28.40;;;16.08;;
81679;SDS011;74989;52.210;5.148;2024-02-28T07:49:42;25.83;;;17.47;;
81679;SDS011;74989;52.210;5.148;2024-02-28T07:52:12;24.20;;;15.95;;
81679;SDS011;74989;52.210;5.148;2024-02-28T07:54:41;29.95;;;18.13;;
81679;SDS011;74989;52.210;5.148;2024-02-28T07:57:09;29.50;;;17.40;;
81679;SDS011;74989;52.210;5.148;2024-02-28T07:59:40;25.90;;;17.13;;
81679;SDS011;74989;52.210;5.148;2024-02-28T08:02:07;28.27;;;17.03;;
81679;SDS011;74989;52.210;5.148;2024-02-28T08:04:34;23.15;;;16.63;;
81679;SDS011;74989;52.210;5.148;2024-02-28T08:07:03;25.77;;;17.25;;
81679;SDS011;74989;52.210;5.148;2024-02-28T08:09:30;25.40;;;16.13;;
81679;SDS011;74989;52.210;5.148;2024-02-28T08:11:57;26.65;;;17.17;;
81679;SDS011;74989;52.210;5.148;2024-02-28T08:14:24;27.73;;;16.77;;
81679;SDS011;74989;52.210;5.148;2024-02-28T08:16:51;27.45;;;15.77;;
81679;SDS011;74989;52.210;5.148;2024-02-28T08:19:17;24.98;;;15.32;;
81679;SDS011;74989;52.210;5.148;2024-02-28T08:21:44;25.08;;;14.60;;
81679;SDS011;74989;52.210;5.148;2024-02-28T08:24:12;28.48;;;17.67;;
81679;SDS011;74989;52.210;5.148;2024-02-28T08:26:39;24.70;;;17.10;;
81679;SDS011;74989;52.210;5.148;2024-02-28T08:29:07;24.77;;;14.95;;
81679;SDS011;74989;52.210;5.148;2024-02-28T08:31:39;31.50;;;16.73;;
81679;SDS011;74989;52.210;5.148;2024-02-28T08:34:06;20.58;;;15.63;;
81679;SDS011;74989;52.210;5.148;2024-02-28T08:36:32;24.98;;;15.40;;
81679;SDS011;74989;52.210;5.148;2024-02-28T08:38:59;23.50;;;13.67;;
81679;SDS011;74989;52.210;5.148;2024-02-28T08:41:27;24.83;;;14.45;;
81679;SDS011;74989;52.210;5.148;2024-02-28T08:43:53;31.95;;;16.98;;
81679;SDS011;74989;52.210;5.148;2024-02-28T08:46:20;28.23;;;15.45;;
81679;SDS011;74989;52.210;5.148;2024-02-28T08:48:47;22.92;;;16.00;;
81679;SDS011;74989;52.210;5.148;2024-02-28T08:51:13;22.63;;;15.37;;
81679;SDS011;74989;52.210;5.148;2024-02-28T08:53:40;21.35;;;14.52;;
81679;SDS011;74989;52.210;5.148;2024-02-28T08:56:07;25.48;;;15.95;;
81679;SDS011;74989;52.210;5.148;2024-02-28T08:58:35;25.15;;;14.50;;
81679;SDS011;74989;52.210;5.148;2024-02-28T09:01:02;21.08;;;13.85;;
81679;SDS011;74989;52.210;5.148;2024-02-28T09:03:30;26.17;;;14.47;;
81679;SDS011;74989;52.210;5.148;2024-02-28T09:05:57;23.27;;;14.15;;
81679;SDS011;74989;52.210;5.148;2024-02-28T09:08:23;22.33;;;15.65;;
81679;SDS011;74989;52.210;5.148;2024-02-28T09:10:50;19.45;;;12.85;;
81679;SDS011;74989;52.210;5.148;2024-02-28T09:13:17;24.50;;;13.90;;
81679;SDS011;74989;52.210;5.148;2024-02-28T09:15:47;22.63;;;12.50;;
81679;SDS011;74989;52.210;5.148;2024-02-28T09:18:14;20.48;;;13.10;;
81679;SDS011;74989;52.210;5.148;2024-02-28T09:20:41;22.88;;;14.55;;
81679;SDS011;74989;52.210;5.148;2024-02-28T09:23:07;19.95;;;13.90;;
81679;SDS011;74989;52.210;5.148;2024-02-28T09:25:34;24.00;;;14.32;;
81679;SDS011;74989;52.210;5.148;2024-02-28T09:28:01;19.70;;;13.03;;
81679;SDS011;74989;52.210;5.148;2024-02-28T09:30:28;18.05;;;11.88;;
81679;SDS011;74989;52.210;5.148;2024-02-28T09:32:56;19.55;;;12.93;;
81679;SDS011;74989;52.210;5.148;2024-02-28T09:35:23;18.08;;;11.88;;
81679;SDS011;74989;52.210;5.148;2024-02-28T09:37:49;22.20;;;13.02;;
81679;SDS011;74989;52.210;5.148;2024-02-28T09:40:16;18.13;;;11.23;;
81679;SDS011;74989;52.210;5.148;2024-02-28T09:42:45;18.20;;;12.18;;
81679;SDS011;74989;52.210;5.148;2024-02-28T09:45:17;20.92;;;12.27;;
81679;SDS011;74989;52.210;5.148;2024-02-28T09:47:46;19.92;;;12.45;;
81679;SDS011;74989;52.210;5.148;2024-02-28T09:50:14;18.48;;;11.35;;
81679;SDS011;74989;52.210;5.148;2024-02-28T09:52:44;22.33;;;12.87;;
81679;SDS011;74989;52.210;5.148;2024-02-28T09:55:11;19.65;;;12.77;;
81679;SDS011;74989;52.210;5.148;2024-02-28T09:57:37;23.73;;;16.50;;
81679;SDS011;74989;52.210;5.148;2024-02-28T10:00:05;21.63;;;12.88;;
81679;SDS011;74989;52.210;5.148;2024-02-28T10:02:34;16.83;;;12.73;;
81679;SDS011;74989;52.210;5.148;2024-02-28T10:05:03;19.57;;;11.90;;
81679;SDS011;74989;52.210;5.148;2024-02-28T10:07:32;22.27;;;12.60;;
81679;SDS011;74989;52.210;5.148;2024-02-28T10:09:59;21.02;;;14.75;;
81679;SDS011;74989;52.210;5.148;2024-02-28T10:12:26;18.55;;;11.30;;
81679;SDS011;74989;52.210;5.148;2024-02-28T10:14:52;20.33;;;12.30;;
81679;SDS011;74989;52.210;5.148;2024-02-28T10:17:20;18.00;;;12.00;;
81679;SDS011;74989;52.210;5.148;2024-02-28T10:19:46;19.55;;;12.20;;
81679;SDS011;74989;52.210;5.148;2024-02-28T10:22:13;18.05;;;11.98;;
81679;SDS011;74989;52.210;5.148;2024-02-28T10:24:42;13.70;;;10.55;;
81679;SDS011;74989;52.210;5.148;2024-02-28T10:27:10;13.88;;;10.10;;
81679;SDS011;74989;52.210;5.148;2024-02-28T10:29:42;13.03;;;9.10;;
81679;SDS011;74989;52.210;5.148;2024-02-28T10:32:09;13.32;;;9.35;;
81679;SDS011;74989;52.210;5.148;2024-02-28T10:34:37;15.18;;;9.07;;
81679;SDS011;74989;52.210;5.148;2024-02-28T10:37:04;16.00;;;9.45;;
81679;SDS011;74989;52.210;5.148;2024-02-28T10:39:46;18.25;;;10.30;;
81679;SDS011;74989;52.210;5.148;2024-02-28T11:27:29;23.08;;;13.43;;
81679;SDS011;74989;52.210;5.148;2024-02-28T11:29:57;22.05;;;12.60;;
81679;SDS011;74989;52.210;5.148;2024-02-28T11:32:26;19.50;;;13.48;;
81679;SDS011;74989;52.210;5.148;2024-02-28T11:34:57;21.00;;;12.73;;
81679;SDS011;74989;52.210;5.148;2024-02-28T11:37:26;21.90;;;14.17;;
81679;SDS011;74989;52.210;5.148;2024-02-28T11:39:54;22.88;;;14.75;;
81679;SDS011;74989;52.210;5.148;2024-02-28T11:42:21;22.73;;;15.07;;
81679;SDS011;74989;52.210;5.148;2024-02-28T11:44:54;21.15;;;14.50;;
81679;SDS011;74989;52.210;5.148;2024-02-28T11:47:22;21.92;;;14.57;;
81679;SDS011;74989;52.210;5.148;2024-02-28T11:49:49;21.00;;;15.07;;
81679;SDS011;74989;52.210;5.148;2024-02-28T11:52:16;25.75;;;16.10;;
81679;SDS011;74989;52.210;5.148;2024-02-28T11:54:43;24.27;;;16.48;;
81679;SDS011;74989;52.210;5.148;2024-02-28T11:57:11;18.58;;;14.27;;
81679;SDS011;74989;52.210;5.148;2024-02-28T11:59:43;24.85;;;15.40;;
81679;SDS011;74989;52.210;5.148;2024-02-28T12:02:15;28.87;;;14.60;;
81679;SDS011;74989;52.210;5.148;2024-02-28T12:04:42;24.90;;;16.27;;
81679;SDS011;74989;52.210;5.148;2024-02-28T12:07:09;20.83;;;14.32;;
81679;SDS011;74989;52.210;5.148;2024-02-28T12:09:36;21.30;;;15.95;;
81679;SDS011;74989;52.210;5.148;2024-02-28T12:12:04;24.95;;;15.65;;
81679;SDS011;74989;52.210;5.148;2024-02-28T12:14:36;23.70;;;15.90;;
81679;SDS011;74989;52.210;5.148;2024-02-28T12:17:03;24.63;;;16.67;;
81679;SDS011;74989;52.210;5.148;2024-02-28T12:19:31;23.75;;;16.60;;
81679;SDS011;74989;52.210;5.148;2024-02-28T12:21:58;23.48;;;16.60;;
81679;SDS011;74989;52.210;5.148;2024-02-28T12:24:25;23.90;;;16.55;;
81679;SDS011;74989;52.210;5.148;2024-02-28T12:26:53;23.90;;;16.57;;
81679;SDS011;74989;52.210;5.148;2024-02-28T12:29:19;21.38;;;15.75;;
81679;SDS011;74989;52.210;5.148;2024-02-28T12:31:46;25.92;;;16.30;;
81679;SDS011;74989;52.210;5.148;2024-02-28T12:34:13;24.90;;;17.02;;
81679;SDS011;74989;52.210;5.148;2024-02-28T12:36:41;25.75;;;16.95;;
81679;SDS011;74989;52.210;5.148;2024-02-28T12:39:08;19.47;;;13.73;;
81679;SDS011;74989;52.210;5.148;2024-02-28T12:41:36;23.67;;;13.15;;
81679;SDS011;74989;52.210;5.148;2024-02-28T12:44:03;19.98;;;12.57;;
81679;SDS011;74989;52.210;5.148;2024-02-28T12:46:30;24.75;;;15.95;;
81679;SDS011;74989;52.210;5.148;2024-02-28T12:48:57;25.17;;;15.77;;
81679;SDS011;74989;52.210;5.148;2024-02-28T12:51:35;18.70;;;13.73;;
81679;SDS011;74989;52.210;5.148;2024-02-28T12:54:05;20.27;;;13.48;;
81679;SDS011;74989;52.210;5.148;2024-02-28T12:56:32;19.42;;;14.23;;
81679;SDS011;74989;52.210;5.148;2024-02-28T12:58:59;18.00;;;12.80;;
81679;SDS011;74989;52.210;5.148;2024-02-28T13:01:26;19.27;;;12.52;;
81679;SDS011;74989;52.210;5.148;2024-02-28T13:03:53;17.00;;;12.17;;
81679;SDS011;74989;52.210;5.148;2024-02-28T13:06:20;16.73;;;12.18;;
81679;SDS011;74989;52.210;5.148;2024-02-28T13:08:47;16.58;;;12.05;;
81679;SDS011;74989;52.210;5.148;2024-02-28T13:11:19;17.42;;;12.20;;
81679;SDS011;74989;52.210;5.148;2024-02-28T13:13:47;16.67;;;12.45;;
81679;SDS011;74989;52.210;5.148;2024-02-28T13:16:14;22.57;;;13.13;;
81679;SDS011;74989;52.210;5.148;2024-02-28T13:18:41;19.23;;;13.35;;
81679;SDS011;74989;52.210;5.148;2024-02-28T13:21:08;20.42;;;14.18;;
81679;SDS011;74989;52.210;5.148;2024-02-28T13:23:35;17.95;;;12.85;;
81679;SDS011;74989;52.210;5.148;2024-02-28T13:26:03;14.90;;;13.30;;
81679;SDS011;74989;52.210;5.148;2024-02-28T13:28:32;17.73;;;12.57;;
81679;SDS011;74989;52.210;5.148;2024-02-28T13:31:00;17.73;;;13.43;;
81679;SDS011;74989;52.210;5.148;2024-02-28T13:33:29;17.98;;;14.18;;
81679;SDS011;74989;52.210;5.148;2024-02-28T13:35:56;16.63;;;13.45;;
81679;SDS011;74989;52.210;5.148;2024-02-28T13:38:22;20.48;;;14.63;;
81679;SDS011;74989;52.210;5.148;2024-02-28T13:40:49;21.63;;;14.13;;
81679;SDS011;74989;52.210;5.148;2024-02-28T13:43:16;22.83;;;14.88;;
81679;SDS011;74989;52.210;5.148;2024-02-28T13:45:47;23.83;;;15.18;;
81679;SDS011;74989;52.210;5.148;2024-02-28T13:48:16;28.88;;;16.80;;
81679;SDS011;74989;52.210;5.148;2024-02-28T13:50:46;27.38;;;19.73;;
81679;SDS011;74989;52.210;5.148;2024-02-28T13:53:13;26.97;;;18.10;;
81679;SDS011;74989;52.210;5.148;2024-02-28T13:55:41;32.55;;;19.35;;
81679;SDS011;74989;52.210;5.148;2024-02-28T13:58:08;27.13;;;20.13;;
81679;SDS011;74989;52.210;5.148;2024-02-28T14:00:36;30.20;;;20.23;;
81679;SDS011;74989;52.210;5.148;2024-02-28T14:03:05;25.40;;;20.23;;
81679;SDS011;74989;52.210;5.148;2024-02-28T14:05:32;33.00;;;21.80;;
81679;SDS011;74989;52.210;5.148;2024-02-28T14:07:59;28.77;;;20.52;;
81679;SDS011;74989;52.210;5.148;2024-02-28T14:10:29;29.70;;;21.60;;
81679;SDS011;74989;52.210;5.148;2024-02-28T14:12:56;33.72;;;21.70;;
81679;SDS011;74989;52.210;5.148;2024-02-28T14:15:23;29.40;;;20.05;;
81679;SDS011;74989;52.210;5.148;2024-02-28T14:17:50;31.83;;;22.47;;
81679;SDS011;74989;52.210;5.148;2024-02-28T14:20:18;31.08;;;23.38;;
81679;SDS011;74989;52.210;5.148;2024-02-28T14:22:48;29.15;;;21.23;;
81679;SDS011;74989;52.210;5.148;2024-02-28T14:25:15;29.02;;;22.67;;
81679;SDS011;74989;52.210;5.148;2024-02-28T14:27:45;32.22;;;24.05;;
81679;SDS011;74989;52.210;5.148;2024-02-28T14:30:13;35.77;;;23.00;;
81679;SDS011;74989;52.210;5.148;2024-02-28T14:32:41;33.92;;;22.67;;
81679;SDS011;74989;52.210;5.148;2024-02-28T14:35:09;34.72;;;23.45;;
81679;SDS011;74989;52.210;5.148;2024-02-28T14:37:38;31.27;;;20.85;;
81679;SDS011;74989;52.210;5.148;2024-02-28T14:40:06;29.05;;;22.35;;
81679;SDS011;74989;52.210;5.148;2024-02-28T14:42:36;32.87;;;22.13;;
81679;SDS011;74989;52.210;5.148;2024-02-28T14:45:03;29.40;;;20.50;;
81679;SDS011;74989;52.210;5.148;2024-02-28T14:47:31;29.75;;;19.48;;
81679;SDS011;74989;52.210;5.148;2024-02-28T14:49:59;28.52;;;18.92;;
81679;SDS011;74989;52.210;5.148;2024-02-28T14:52:26;27.95;;;20.15;;
81679;SDS011;74989;52.210;5.148;2024-02-28T14:54:54;31.50;;;20.43;;
81679;SDS011;74989;52.210;5.148;2024-02-28T14:57:22;29.52;;;18.80;;
81679;SDS011;74989;52.210;5.148;2024-02-28T14:59:49;29.50;;;21.63;;
81679;SDS011;74989;52.210;5.148;2024-02-28T15:02:16;27.70;;;19.52;;
81679;SDS011;74989;52.210;5.148;2024-02-28T15:04:43;30.38;;;18.75;;
81679;SDS011;74989;52.210;5.148;2024-02-28T15:07:10;28.33;;;17.97;;